sensor_id;sensor_type;location;lat;lon;timestamp;temperature;humidity
10294;DHT22;5192;50.328;7.610;2022-07-21T00:01:28;20.40;99.90
10294;DHT22;5192;50.328;7.610;2022-07-21T00:03:56;20.10;99.90
10294;DHT22;5192;50.328;7.610;2022-07-21T00:06:23;19.80;99.90
10294;DHT22;5192;50.328;7.610;2022-07-21T00:08:49;19.50;99.90
10294;DHT22;5192;50.328;7.610;2022-07-21T00:11:15;19.20;99.90
10294;DHT22;5192;50.328;7.610;2022-07-21T00:13:43;19.10;99.90
10294;DHT22;5192;50.328;7.610;2022-07-21T00:16:10;19.00;99.90
10294;DHT22;5192;50.328;7.610;2022-07-21T00:18:37;18.90;99.90
10294;DHT22;5192;50.328;7.610;2022-07-21T00:21:05;18.80;99.90
10294;DHT22;5192;50.328;7.610;2022-07-21T00:23:32;18.80;99.90
10294;DHT22;5192;50.328;7.610;2022-07-21T00:26:00;18.60;99.90
10294;DHT22;5192;50.328;7.610;2022-07-21T00:28:27;18.60;99.90
10294;DHT22;5192;50.328;7.610;2022-07-21T00:30:53;18.60;99.90
10294;DHT22;5192;50.328;7.610;2022-07-21T00:33:20;18.50;99.90
10294;DHT22;5192;50.328;7.610;2022-07-21T00:35:49;18.50;99.90
10294;DHT22;5192;50.328;7.610;2022-07-21T00:38:17;18.50;99.90
10294;DHT22;5192;50.328;7.610;2022-07-21T00:40:45;18.40;99.90
10294;DHT22;5192;50.328;7.610;2022-07-21T00:43:14;18.50;99.90
10294;DHT22;5192;50.328;7.610;2022-07-21T00:45:42;18.50;99.90
10294;DHT22;5192;50.328;7.610;2022-07-21T00:48:08;18.40;99.90
10294;DHT22;5192;50.328;7.610;2022-07-21T00:50:35;18.30;99.90
10294;DHT22;5192;50.328;7.610;2022-07-21T00:53:02;18.40;99.90
10294;DHT22;5192;50.328;7.610;2022-07-21T00:55:29;18.40;99.90
10294;DHT22;5192;50.328;7.610;2022-07-21T00:58:02;18.40;99.90
10294;DHT22;5192;50.328;7.610;2022-07-21T01:00:29;18.40;99.90
10294;DHT22;5192;50.328;7.610;2022-07-21T01:02:57;18.40;99.90
10294;DHT22;5192;50.328;7.610;2022-07-21T01:05:24;18.30;99.90
10294;DHT22;5192;50.328;7.610;2022-07-21T01:07:53;18.40;99.90
10294;DHT22;5192;50.328;7.610;2022-07-21T01:10:23;18.50;99.90
10294;DHT22;5192;50.328;7.610;2022-07-21T01:12:49;18.30;99.90
10294;DHT22;5192;50.328;7.610;2022-07-21T01:15:18;18.30;99.90
10294;DHT22;5192;50.328;7.610;2022-07-21T01:17:47;18.20;99.90
10294;DHT22;5192;50.328;7.610;2022-07-21T01:20:16;18.20;99.90
10294;DHT22;5192;50.328;7.610;2022-07-21T01:22:47;18.20;99.90
10294;DHT22;5192;50.328;7.610;2022-07-21T01:25:17;18.30;99.90
10294;DHT22;5192;50.328;7.610;2022-07-21T01:27:43;18.30;99.90
10294;DHT22;5192;50.328;7.610;2022-07-21T01:30:12;18.30;99.90
10294;DHT22;5192;50.328;7.610;2022-07-21T01:32:40;18.30;99.90
10294;DHT22;5192;50.328;7.610;2022-07-21T01:35:13;18.30;99.90
10294;DHT22;5192;50.328;7.610;2022-07-21T01:37:44;18.30;99.90
10294;DHT22;5192;50.328;7.610;2022-07-21T01:40:11;18.30;99.90
10294;DHT22;5192;50.328;7.610;2022-07-21T01:42:57;18.20;99.90
10294;DHT22;5192;50.328;7.610;2022-07-21T01:45:24;18.20;99.90
10294;DHT22;5192;50.328;7.610;2022-07-21T01:47:51;18.20;99.90
10294;DHT22;5192;50.328;7.610;2022-07-21T01:50:19;18.20;99.90
10294;DHT22;5192;50.328;7.610;2022-07-21T01:52:50;18.20;99.90
10294;DHT22;5192;50.328;7.610;2022-07-21T01:55:18;18.20;99.90
10294;DHT22;5192;50.328;7.610;2022-07-21T01:57:46;18.20;99.90
10294;DHT22;5192;50.328;7.610;2022-07-21T02:00:13;18.20;99.90
10294;DHT22;5192;50.328;7.610;2022-07-21T02:02:40;18.20;99.90
10294;DHT22;5192;50.328;7.610;2022-07-21T02:05:06;18.20;99.90
10294;DHT22;5192;50.328;7.610;2022-07-21T02:07:32;18.20;99.90
10294;DHT22;5192;50.328;7.610;2022-07-21T02:09:59;18.20;99.90
10294;DHT22;5192;50.328;7.610;2022-07-21T02:12:24;18.20;99.90
10294;DHT22;5192;50.328;7.610;2022-07-21T02:14:51;18.20;99.90
10294;DHT22;5192;50.328;7.610;2022-07-21T02:17:19;18.10;99.90
10294;DHT22;5192;50.328;7.610;2022-07-21T02:19:46;18.20;99.90
10294;DHT22;5192;50.328;7.610;2022-07-21T02:22:12;18.20;99.90
10294;DHT22;5192;50.328;7.610;2022-07-21T02:24:39;18.20;99.90
10294;DHT22;5192;50.328;7.610;2022-07-21T02:27:08;18.20;99.90
10294;DHT22;5192;50.328;7.610;2022-07-21T02:29:34;18.20;99.90
10294;DHT22;5192;50.328;7.610;2022-07-21T02:32:01;18.20;99.90
10294;DHT22;5192;50.328;7.610;2022-07-21T02:34:28;18.20;99.90
10294;DHT22;5192;50.328;7.610;2022-07-21T02:36:55;18.20;99.90
10294;DHT22;5192;50.328;7.610;2022-07-21T02:39:22;18.10;99.90
10294;DHT22;5192;50.328;7.610;2022-07-21T02:41:50;18.10;99.90
10294;DHT22;5192;50.328;7.610;2022-07-21T02:44:17;18.10;99.90
10294;DHT22;5192;50.328;7.610;2022-07-21T02:46:45;18.00;99.90
10294;DHT22;5192;50.328;7.610;2022-07-21T02:49:12;18.00;99.90
10294;DHT22;5192;50.328;7.610;2022-07-21T02:51:37;18.00;99.90
10294;DHT22;5192;50.328;7.610;2022-07-21T02:54:06;18.00;99.90
10294;DHT22;5192;50.328;7.610;2022-07-21T02:56:34;18.00;99.90
10294;DHT22;5192;50.328;7.610;2022-07-21T02:59:00;17.90;99.90
10294;DHT22;5192;50.328;7.610;2022-07-21T03:01:27;17.90;99.90
10294;DHT22;5192;50.328;7.610;2022-07-21T03:03:53;17.90;99.90
10294;DHT22;5192;50.328;7.610;2022-07-21T03:06:20;17.90;99.90
10294;DHT22;5192;50.328;7.610;2022-07-21T03:08:48;17.90;99.90
10294;DHT22;5192;50.328;7.610;2022-07-21T03:11:16;17.80;99.90
10294;DHT22;5192;50.328;7.610;2022-07-21T03:13:44;17.80;99.90
10294;DHT22;5192;50.328;7.610;2022-07-21T03:16:10;17.80;99.90
10294;DHT22;5192;50.328;7.610;2022-07-21T03:18:36;17.70;99.90
10294;DHT22;5192;50.328;7.610;2022-07-21T03:21:02;17.70;99.90
10294;DHT22;5192;50.328;7.610;2022-07-21T03:23:28;17.60;99.90
10294;DHT22;5192;50.328;7.610;2022-07-21T03:25:53;17.50;99.90
10294;DHT22;5192;50.328;7.610;2022-07-21T03:28:20;17.50;99.90
10294;DHT22;5192;50.328;7.610;2022-07-21T03:30:47;17.40;99.90
10294;DHT22;5192;50.328;7.610;2022-07-21T03:33:13;17.40;99.90
10294;DHT22;5192;50.328;7.610;2022-07-21T03:35:43;17.40;99.90
10294;DHT22;5192;50.328;7.610;2022-07-21T03:38:09;17.40;99.90
10294;DHT22;5192;50.328;7.610;2022-07-21T03:40:37;17.40;99.90
10294;DHT22;5192;50.328;7.610;2022-07-21T03:43:09;17.40;99.90
10294;DHT22;5192;50.328;7.610;2022-07-21T03:45:36;17.40;99.90
10294;DHT22;5192;50.328;7.610;2022-07-21T03:48:08;17.40;99.90
10294;DHT22;5192;50.328;7.610;2022-07-21T03:50:36;17.30;99.90
10294;DHT22;5192;50.328;7.610;2022-07-21T03:53:06;17.30;99.90
10294;DHT22;5192;50.328;7.610;2022-07-21T03:55:32;17.30;99.90
10294;DHT22;5192;50.328;7.610;2022-07-21T03:58:05;17.30;99.90
10294;DHT22;5192;50.328;7.610;2022-07-21T04:00:37;17.20;99.90
10294;DHT22;5192;50.328;7.610;2022-07-21T04:03:04;17.30;99.90
10294;DHT22;5192;50.328;7.610;2022-07-21T04:05:32;17.20;99.90
10294;DHT22;5192;50.328;7.610;2022-07-21T04:08:01;17.20;99.90
10294;DHT22;5192;50.328;7.610;2022-07-21T04:10:34;17.30;99.90
10294;DHT22;5192;50.328;7.610;2022-07-21T04:13:05;17.20;99.90
10294;DHT22;5192;50.328;7.610;2022-07-21T04:15:32;17.20;99.90
10294;DHT22;5192;50.328;7.610;2022-07-21T04:18:00;17.30;99.90
10294;DHT22;5192;50.328;7.610;2022-07-21T04:20:28;17.30;99.90
10294;DHT22;5192;50.328;7.610;2022-07-21T04:22:58;17.30;99.90
10294;DHT22;5192;50.328;7.610;2022-07-21T04:25:24;17.30;99.90
10294;DHT22;5192;50.328;7.610;2022-07-21T04:27:52;17.30;99.90
10294;DHT22;5192;50.328;7.610;2022-07-21T04:30:22;17.40;99.90
10294;DHT22;5192;50.328;7.610;2022-07-21T04:32:51;17.40;99.90
10294;DHT22;5192;50.328;7.610;2022-07-21T04:35:18;17.40;99.90
10294;DHT22;5192;50.328;7.610;2022-07-21T04:37:45;17.50;99.90
10294;DHT22;5192;50.328;7.610;2022-07-21T04:40:12;17.50;99.90
10294;DHT22;5192;50.328;7.610;2022-07-21T04:42:41;17.50;99.90
10294;DHT22;5192;50.328;7.610;2022-07-21T04:45:08;17.60;99.90
10294;DHT22;5192;50.328;7.610;2022-07-21T04:47:54;17.50;99.90
10294;DHT22;5192;50.328;7.610;2022-07-21T04:50:27;17.60;99.90
10294;DHT22;5192;50.328;7.610;2022-07-21T04:52:53;17.60;99.90
10294;DHT22;5192;50.328;7.610;2022-07-21T04:55:21;17.60;99.90
10294;DHT22;5192;50.328;7.610;2022-07-21T04:57:50;17.60;99.90
10294;DHT22;5192;50.328;7.610;2022-07-21T05:00:25;17.70;99.90
10294;DHT22;5192;50.328;7.610;2022-07-21T05:02:53;17.80;99.90
10294;DHT22;5192;50.328;7.610;2022-07-21T05:05:19;17.90;99.90
10294;DHT22;5192;50.328;7.610;2022-07-21T05:07:47;17.90;99.90
10294;DHT22;5192;50.328;7.610;2022-07-21T05:10:15;17.90;99.90
10294;DHT22;5192;50.328;7.610;2022-07-21T05:12:43;18.00;99.90
10294;DHT22;5192;50.328;7.610;2022-07-21T05:15:11;18.10;99.90
10294;DHT22;5192;50.328;7.610;2022-07-21T05:17:40;18.20;99.90
10294;DHT22;5192;50.328;7.610;2022-07-21T05:20:08;18.30;99.90
10294;DHT22;5192;50.328;7.610;2022-07-21T05:22:34;18.30;99.90
10294;DHT22;5192;50.328;7.610;2022-07-21T05:25:01;18.30;99.90
10294;DHT22;5192;50.328;7.610;2022-07-21T05:27:31;18.30;99.90
10294;DHT22;5192;50.328;7.610;2022-07-21T05:29:59;18.30;99.90
10294;DHT22;5192;50.328;7.610;2022-07-21T05:32:27;18.30;99.90
10294;DHT22;5192;50.328;7.610;2022-07-21T05:34:54;18.20;99.90
10294;DHT22;5192;50.328;7.610;2022-07-21T05:37:21;18.20;99.90
10294;DHT22;5192;50.328;7.610;2022-07-21T05:39:48;18.10;99.90
10294;DHT22;5192;50.328;7.610;2022-07-21T05:42:15;18.10;99.90
10294;DHT22;5192;50.328;7.610;2022-07-21T05:44:42;18.10;99.90
10294;DHT22;5192;50.328;7.610;2022-07-21T05:47:10;18.10;99.90
10294;DHT22;5192;50.328;7.610;2022-07-21T05:49:38;18.10;99.90
10294;DHT22;5192;50.328;7.610;2022-07-21T05:52:06;17.90;99.90
10294;DHT22;5192;50.328;7.610;2022-07-21T05:54:34;17.90;99.90
10294;DHT22;5192;50.328;7.610;2022-07-21T05:57:00;18.00;99.90
10294;DHT22;5192;50.328;7.610;2022-07-21T05:59:29;18.10;99.90
10294;DHT22;5192;50.328;7.610;2022-07-21T06:01:56;18.10;99.90
10294;DHT22;5192;50.328;7.610;2022-07-21T06:04:23;18.20;99.90
10294;DHT22;5192;50.328;7.610;2022-07-21T06:06:50;18.40;99.90
10294;DHT22;5192;50.328;7.610;2022-07-21T06:09:19;18.50;99.90
10294;DHT22;5192;50.328;7.610;2022-07-21T06:11:47;18.60;99.90
10294;DHT22;5192;50.328;7.610;2022-07-21T06:14:15;18.80;99.90
10294;DHT22;5192;50.328;7.610;2022-07-21T06:16:43;18.80;99.90
10294;DHT22;5192;50.328;7.610;2022-07-21T06:19:09;19.00;99.90
10294;DHT22;5192;50.328;7.610;2022-07-21T06:21:35;19.00;99.90
10294;DHT22;5192;50.328;7.610;2022-07-21T06:24:03;19.10;99.90
10294;DHT22;5192;50.328;7.610;2022-07-21T06:26:30;19.20;99.90
10294;DHT22;5192;50.328;7.610;2022-07-21T06:28:58;19.20;99.90
10294;DHT22;5192;50.328;7.610;2022-07-21T06:31:24;19.20;99.90
10294;DHT22;5192;50.328;7.610;2022-07-21T06:33:52;19.20;99.90
10294;DHT22;5192;50.328;7.610;2022-07-21T06:36:19;19.10;99.90
10294;DHT22;5192;50.328;7.610;2022-07-21T06:38:46;19.10;99.90
10294;DHT22;5192;50.328;7.610;2022-07-21T06:41:14;19.10;99.90
10294;DHT22;5192;50.328;7.610;2022-07-21T06:43:41;19.10;99.90
10294;DHT22;5192;50.328;7.610;2022-07-21T06:46:09;19.00;99.90
10294;DHT22;5192;50.328;7.610;2022-07-21T06:48:36;19.00;99.90
10294;DHT22;5192;50.328;7.610;2022-07-21T06:51:02;18.90;99.90
10294;DHT22;5192;50.328;7.610;2022-07-21T06:53:28;19.00;99.90
10294;DHT22;5192;50.328;7.610;2022-07-21T06:55:55;19.00;99.90
10294;DHT22;5192;50.328;7.610;2022-07-21T06:58:25;19.10;99.90
10294;DHT22;5192;50.328;7.610;2022-07-21T07:00:51;19.10;99.90
10294;DHT22;5192;50.328;7.610;2022-07-21T07:03:21;19.30;99.90
10294;DHT22;5192;50.328;7.610;2022-07-21T07:05:48;19.30;99.90
10294;DHT22;5192;50.328;7.610;2022-07-21T07:08:15;19.50;99.90
10294;DHT22;5192;50.328;7.610;2022-07-21T07:10:47;19.50;99.90
10294;DHT22;5192;50.328;7.610;2022-07-21T07:13:14;19.50;99.90
10294;DHT22;5192;50.328;7.610;2022-07-21T07:15:43;19.40;99.90
10294;DHT22;5192;50.328;7.610;2022-07-21T07:18:10;19.40;99.90
10294;DHT22;5192;50.328;7.610;2022-07-21T07:20:37;19.40;99.90
10294;DHT22;5192;50.328;7.610;2022-07-21T07:23:04;19.50;99.90
10294;DHT22;5192;50.328;7.610;2022-07-21T07:25:30;19.60;99.90
10294;DHT22;5192;50.328;7.610;2022-07-21T07:27:58;19.70;99.90
10294;DHT22;5192;50.328;7.610;2022-07-21T07:30:25;19.80;99.90
10294;DHT22;5192;50.328;7.610;2022-07-21T07:32:51;19.80;99.90
10294;DHT22;5192;50.328;7.610;2022-07-21T07:35:18;19.80;99.90
10294;DHT22;5192;50.328;7.610;2022-07-21T07:37:46;19.90;99.90
10294;DHT22;5192;50.328;7.610;2022-07-21T07:40:16;19.80;99.90
10294;DHT22;5192;50.328;7.610;2022-07-21T07:42:43;19.90;99.90
10294;DHT22;5192;50.328;7.610;2022-07-21T07:45:11;19.90;99.90
10294;DHT22;5192;50.328;7.610;2022-07-21T07:47:37;19.90;99.90
10294;DHT22;5192;50.328;7.610;2022-07-21T07:50:06;19.90;99.90
10294;DHT22;5192;50.328;7.610;2022-07-21T07:52:35;19.90;99.90
10294;DHT22;5192;50.328;7.610;2022-07-21T07:55:05;20.00;99.90
10294;DHT22;5192;50.328;7.610;2022-07-21T07:57:35;20.10;99.90
10294;DHT22;5192;50.328;7.610;2022-07-21T08:00:03;20.10;99.90
10294;DHT22;5192;50.328;7.610;2022-07-21T08:02:32;20.20;99.90
10294;DHT22;5192;50.328;7.610;2022-07-21T08:04:58;20.30;99.90
10294;DHT22;5192;50.328;7.610;2022-07-21T08:07:25;20.40;99.90
10294;DHT22;5192;50.328;7.610;2022-07-21T08:09:52;20.40;99.90
10294;DHT22;5192;50.328;7.610;2022-07-21T08:12:19;20.40;99.90
10294;DHT22;5192;50.328;7.610;2022-07-21T08:14:45;20.60;99.90
10294;DHT22;5192;50.328;7.610;2022-07-21T08:17:13;20.80;99.90
10294;DHT22;5192;50.328;7.610;2022-07-21T08:19:43;20.90;99.90
10294;DHT22;5192;50.328;7.610;2022-07-21T08:22:09;21.00;99.90
10294;DHT22;5192;50.328;7.610;2022-07-21T08:24:36;21.20;99.90
10294;DHT22;5192;50.328;7.610;2022-07-21T08:27:05;21.10;99.90
10294;DHT22;5192;50.328;7.610;2022-07-21T08:29:31;21.10;99.90
10294;DHT22;5192;50.328;7.610;2022-07-21T08:31:59;21.20;99.90
10294;DHT22;5192;50.328;7.610;2022-07-21T08:34:27;21.10;99.90
10294;DHT22;5192;50.328;7.610;2022-07-21T08:36:56;21.30;99.90
10294;DHT22;5192;50.328;7.610;2022-07-21T08:39:22;21.40;99.90
10294;DHT22;5192;50.328;7.610;2022-07-21T08:41:51;21.60;99.90
10294;DHT22;5192;50.328;7.610;2022-07-21T08:44:22;21.80;99.90
10294;DHT22;5192;50.328;7.610;2022-07-21T08:46:50;22.00;99.90
10294;DHT22;5192;50.328;7.610;2022-07-21T08:49:22;22.10;99.90
10294;DHT22;5192;50.328;7.610;2022-07-21T08:51:49;22.40;99.90
10294;DHT22;5192;50.328;7.610;2022-07-21T08:54:21;22.50;99.90
10294;DHT22;5192;50.328;7.610;2022-07-21T08:56:49;22.00;99.90
10294;DHT22;5192;50.328;7.610;2022-07-21T08:59:16;22.00;99.90
10294;DHT22;5192;50.328;7.610;2022-07-21T09:01:43;22.30;99.90
10294;DHT22;5192;50.328;7.610;2022-07-21T09:04:28;22.40;99.90
10294;DHT22;5192;50.328;7.610;2022-07-21T09:07:13;22.70;99.90
10294;DHT22;5192;50.328;7.610;2022-07-21T09:09:41;23.00;99.90
10294;DHT22;5192;50.328;7.610;2022-07-21T09:12:22;23.10;99.90
10294;DHT22;5192;50.328;7.610;2022-07-21T09:14:49;23.00;99.90
10294;DHT22;5192;50.328;7.610;2022-07-21T09:17:18;22.90;99.90
10294;DHT22;5192;50.328;7.610;2022-07-21T09:19:46;23.00;99.90
10294;DHT22;5192;50.328;7.610;2022-07-21T09:22:20;22.70;99.90
10294;DHT22;5192;50.328;7.610;2022-07-21T09:24:52;22.80;99.90
10294;DHT22;5192;50.328;7.610;2022-07-21T09:27:28;23.10;99.90
10294;DHT22;5192;50.328;7.610;2022-07-21T09:29:59;23.00;99.90
10294;DHT22;5192;50.328;7.610;2022-07-21T09:32:48;23.00;99.90
10294;DHT22;5192;50.328;7.610;2022-07-21T09:35:15;22.90;99.90
10294;DHT22;5192;50.328;7.610;2022-07-21T09:37:42;23.00;99.90
10294;DHT22;5192;50.328;7.610;2022-07-21T09:40:14;22.80;99.90
10294;DHT22;5192;50.328;7.610;2022-07-21T09:42:49;22.70;99.90
10294;DHT22;5192;50.328;7.610;2022-07-21T09:45:17;22.70;99.90
10294;DHT22;5192;50.328;7.610;2022-07-21T09:47:48;22.70;99.90
10294;DHT22;5192;50.328;7.610;2022-07-21T09:50:15;22.80;99.90
10294;DHT22;5192;50.328;7.610;2022-07-21T09:52:45;22.90;99.90
10294;DHT22;5192;50.328;7.610;2022-07-21T09:55:14;23.00;99.90
10294;DHT22;5192;50.328;7.610;2022-07-21T09:57:42;22.80;99.90
10294;DHT22;5192;50.328;7.610;2022-07-21T10:00:13;22.80;99.90
10294;DHT22;5192;50.328;7.610;2022-07-21T10:02:54;23.00;99.90
10294;DHT22;5192;50.328;7.610;2022-07-21T10:05:23;23.20;99.90
10294;DHT22;5192;50.328;7.610;2022-07-21T10:07:50;23.30;99.90
10294;DHT22;5192;50.328;7.610;2022-07-21T10:10:19;23.50;97.60
10294;DHT22;5192;50.328;7.610;2022-07-21T10:12:47;23.70;99.90
10294;DHT22;5192;50.328;7.610;2022-07-21T10:15:15;23.90;94.40
10294;DHT22;5192;50.328;7.610;2022-07-21T10:17:44;24.30;99.90
10294;DHT22;5192;50.328;7.610;2022-07-21T10:20:29;24.10;77.30
10294;DHT22;5192;50.328;7.610;2022-07-21T10:23:18;24.10;74.60
10294;DHT22;5192;50.328;7.610;2022-07-21T10:25:52;24.00;81.60
10294;DHT22;5192;50.328;7.610;2022-07-21T10:28:36;24.10;45.50
10294;DHT22;5192;50.328;7.610;2022-07-21T10:31:21;24.30;67.90
10294;DHT22;5192;50.328;7.610;2022-07-21T10:33:50;24.60;77.60
10294;DHT22;5192;50.328;7.610;2022-07-21T10:36:49;24.50;37.30
10294;DHT22;5192;50.328;7.610;2022-07-21T10:39:20;24.30;46.50
10294;DHT22;5192;50.328;7.610;2022-07-21T10:41:54;24.50;60.30
10294;DHT22;5192;50.328;7.610;2022-07-21T10:47:19;24.80;15.40
10294;DHT22;5192;50.328;7.610;2022-07-21T10:49:56;25.00;5.70
10294;DHT22;5192;50.328;7.610;2022-07-21T10:55:27;25.10;1.00
10294;DHT22;5192;50.328;7.610;2022-07-21T11:04:13;25.10;10.70
10294;DHT22;5192;50.328;7.610;2022-07-21T11:06:43;25.10;1.00
10294;DHT22;5192;50.328;7.610;2022-07-21T11:09:15;25.20;1.00
10294;DHT22;5192;50.328;7.610;2022-07-21T11:12:02;25.20;1.00
10294;DHT22;5192;50.328;7.610;2022-07-21T11:14:43;25.70;1.00
10294;DHT22;5192;50.328;7.610;2022-07-21T11:17:35;25.70;1.00
10294;DHT22;5192;50.328;7.610;2022-07-21T11:20:12;25.80;1.00
10294;DHT22;5192;50.328;7.610;2022-07-21T11:22:43;25.80;1.00
10294;DHT22;5192;50.328;7.610;2022-07-21T11:25:18;26.20;1.00
10294;DHT22;5192;50.328;7.610;2022-07-21T11:27:45;26.20;1.00
10294;DHT22;5192;50.328;7.610;2022-07-21T11:30:17;26.30;1.00
10294;DHT22;5192;50.328;7.610;2022-07-21T11:32:48;26.20;1.00
10294;DHT22;5192;50.328;7.610;2022-07-21T11:35:15;26.10;1.00
10294;DHT22;5192;50.328;7.610;2022-07-21T11:37:43;26.10;1.00
10294;DHT22;5192;50.328;7.610;2022-07-21T11:40:12;26.40;1.00
10294;DHT22;5192;50.328;7.610;2022-07-21T11:42:46;26.90;1.00
10294;DHT22;5192;50.328;7.610;2022-07-21T11:45:14;26.80;1.00
10294;DHT22;5192;50.328;7.610;2022-07-21T11:47:42;26.80;1.00
10294;DHT22;5192;50.328;7.610;2022-07-21T11:50:12;26.60;1.00
10294;DHT22;5192;50.328;7.610;2022-07-21T11:52:39;26.90;1.00
10294;DHT22;5192;50.328;7.610;2022-07-21T11:55:09;27.10;1.00
10294;DHT22;5192;50.328;7.610;2022-07-21T11:57:40;26.90;1.00
10294;DHT22;5192;50.328;7.610;2022-07-21T12:00:06;26.60;1.00
10294;DHT22;5192;50.328;7.610;2022-07-21T12:02:34;26.40;1.00
10294;DHT22;5192;50.328;7.610;2022-07-21T12:05:03;26.10;1.00
10294;DHT22;5192;50.328;7.610;2022-07-21T12:07:45;26.10;1.00
10294;DHT22;5192;50.328;7.610;2022-07-21T12:10:16;26.10;1.00
10294;DHT22;5192;50.328;7.610;2022-07-21T12:12:51;26.00;1.00
10294;DHT22;5192;50.328;7.610;2022-07-21T12:20:44;26.50;1.00
10294;DHT22;5192;50.328;7.610;2022-07-21T12:23:23;26.90;1.00
10294;DHT22;5192;50.328;7.610;2022-07-21T12:25:52;27.50;1.00
10294;DHT22;5192;50.328;7.610;2022-07-21T12:28:48;27.70;1.00
10294;DHT22;5192;50.328;7.610;2022-07-21T12:31:18;27.40;1.00
10294;DHT22;5192;50.328;7.610;2022-07-21T12:33:54;27.50;1.00
10294;DHT22;5192;50.328;7.610;2022-07-21T12:36:22;27.60;1.00
10294;DHT22;5192;50.328;7.610;2022-07-21T12:38:49;27.80;1.00
10294;DHT22;5192;50.328;7.610;2022-07-21T12:41:19;27.80;1.00
10294;DHT22;5192;50.328;7.610;2022-07-21T12:44:04;27.70;1.00
10294;DHT22;5192;50.328;7.610;2022-07-21T12:46:35;27.50;1.00
10294;DHT22;5192;50.328;7.610;2022-07-21T12:49:23;27.00;1.00
10294;DHT22;5192;50.328;7.610;2022-07-21T12:51:57;26.80;1.00
10294;DHT22;5192;50.328;7.610;2022-07-21T12:54:23;26.80;1.00
10294;DHT22;5192;50.328;7.610;2022-07-21T12:56:51;26.50;1.00
10294;DHT22;5192;50.328;7.610;2022-07-21T12:59:18;26.50;1.00
10294;DHT22;5192;50.328;7.610;2022-07-21T13:01:45;26.40;1.00
10294;DHT22;5192;50.328;7.610;2022-07-21T13:04:12;26.50;1.00
10294;DHT22;5192;50.328;7.610;2022-07-21T13:06:41;26.40;1.00
10294;DHT22;5192;50.328;7.610;2022-07-21T13:09:06;26.40;1.00
10294;DHT22;5192;50.328;7.610;2022-07-21T13:11:34;26.50;1.00
10294;DHT22;5192;50.328;7.610;2022-07-21T13:14:03;26.80;1.00
10294;DHT22;5192;50.328;7.610;2022-07-21T13:16:31;27.30;1.00
10294;DHT22;5192;50.328;7.610;2022-07-21T13:18:57;27.70;1.00
10294;DHT22;5192;50.328;7.610;2022-07-21T13:21:23;27.80;1.00
10294;DHT22;5192;50.328;7.610;2022-07-21T13:23:50;27.90;1.00
10294;DHT22;5192;50.328;7.610;2022-07-21T13:26:15;27.80;1.00
10294;DHT22;5192;50.328;7.610;2022-07-21T13:28:42;27.80;1.00
10294;DHT22;5192;50.328;7.610;2022-07-21T13:31:29;28.00;1.00
10294;DHT22;5192;50.328;7.610;2022-07-21T13:33:56;28.20;1.00
10294;DHT22;5192;50.328;7.610;2022-07-21T13:36:22;28.00;1.00
10294;DHT22;5192;50.328;7.610;2022-07-21T13:38:50;28.00;1.00
10294;DHT22;5192;50.328;7.610;2022-07-21T13:41:18;28.00;1.00
10294;DHT22;5192;50.328;7.610;2022-07-21T13:43:45;27.60;1.00
10294;DHT22;5192;50.328;7.610;2022-07-21T13:46:12;27.30;1.00
10294;DHT22;5192;50.328;7.610;2022-07-21T13:48:40;27.20;1.00
10294;DHT22;5192;50.328;7.610;2022-07-21T13:51:06;27.00;1.00
10294;DHT22;5192;50.328;7.610;2022-07-21T13:53:36;26.80;1.00
10294;DHT22;5192;50.328;7.610;2022-07-21T13:56:01;26.50;1.00
10294;DHT22;5192;50.328;7.610;2022-07-21T13:58:33;26.10;1.00
10294;DHT22;5192;50.328;7.610;2022-07-21T14:01:01;25.90;1.00
10294;DHT22;5192;50.328;7.610;2022-07-21T14:03:28;25.80;1.00
10294;DHT22;5192;50.328;7.610;2022-07-21T14:05:55;25.70;1.00
10294;DHT22;5192;50.328;7.610;2022-07-21T14:08:21;25.60;1.00
10294;DHT22;5192;50.328;7.610;2022-07-21T14:10:48;25.60;1.00
10294;DHT22;5192;50.328;7.610;2022-07-21T14:13:16;25.60;1.00
10294;DHT22;5192;50.328;7.610;2022-07-21T14:15:41;25.50;1.00
10294;DHT22;5192;50.328;7.610;2022-07-21T14:18:08;25.50;1.00
10294;DHT22;5192;50.328;7.610;2022-07-21T14:20:33;25.50;1.00
10294;DHT22;5192;50.328;7.610;2022-07-21T14:23:06;25.60;1.00
10294;DHT22;5192;50.328;7.610;2022-07-21T14:25:33;25.60;1.00
10294;DHT22;5192;50.328;7.610;2022-07-21T14:28:00;25.60;1.00
10294;DHT22;5192;50.328;7.610;2022-07-21T14:30:27;25.50;1.00
10294;DHT22;5192;50.328;7.610;2022-07-21T14:32:55;25.40;1.00
10294;DHT22;5192;50.328;7.610;2022-07-21T14:35:24;25.40;1.00
10294;DHT22;5192;50.328;7.610;2022-07-21T14:37:53;25.40;1.00
10294;DHT22;5192;50.328;7.610;2022-07-21T14:40:20;25.40;1.00
10294;DHT22;5192;50.328;7.610;2022-07-21T14:42:48;25.20;1.00
10294;DHT22;5192;50.328;7.610;2022-07-21T14:45:19;25.10;1.00
10294;DHT22;5192;50.328;7.610;2022-07-21T14:47:47;25.00;1.00
10294;DHT22;5192;50.328;7.610;2022-07-21T14:50:16;24.90;1.00
10294;DHT22;5192;50.328;7.610;2022-07-21T14:52:45;24.90;1.00
10294;DHT22;5192;50.328;7.610;2022-07-21T14:55:12;24.80;1.00
10294;DHT22;5192;50.328;7.610;2022-07-21T14:57:40;24.80;1.00
10294;DHT22;5192;50.328;7.610;2022-07-21T15:00:07;24.80;1.00
10294;DHT22;5192;50.328;7.610;2022-07-21T15:02:34;24.80;1.00
10294;DHT22;5192;50.328;7.610;2022-07-21T15:05:01;24.70;1.00
10294;DHT22;5192;50.328;7.610;2022-07-21T15:07:27;24.80;1.00
10294;DHT22;5192;50.328;7.610;2022-07-21T15:09:54;24.70;1.00
10294;DHT22;5192;50.328;7.610;2022-07-21T15:12:22;24.60;1.00
10294;DHT22;5192;50.328;7.610;2022-07-21T15:14:49;24.60;1.00
10294;DHT22;5192;50.328;7.610;2022-07-21T15:17:17;24.40;17.90
10294;DHT22;5192;50.328;7.610;2022-07-21T15:19:44;24.30;24.40
10294;DHT22;5192;50.328;7.610;2022-07-21T15:22:10;24.00;40.80
10294;DHT22;5192;50.328;7.610;2022-07-21T15:24:36;23.90;70.50
10294;DHT22;5192;50.328;7.610;2022-07-21T15:27:05;23.80;99.90
10294;DHT22;5192;50.328;7.610;2022-07-21T15:29:32;23.80;70.90
10294;DHT22;5192;50.328;7.610;2022-07-21T15:31:59;23.70;30.30
10294;DHT22;5192;50.328;7.610;2022-07-21T15:34:26;23.70;22.40
10294;DHT22;5192;50.328;7.610;2022-07-21T15:36:52;23.60;26.10
10294;DHT22;5192;50.328;7.610;2022-07-21T15:39:19;23.50;65.80
10294;DHT22;5192;50.328;7.610;2022-07-21T15:41:48;23.20;99.90
10294;DHT22;5192;50.328;7.610;2022-07-21T15:44:17;22.80;99.90
10294;DHT22;5192;50.328;7.610;2022-07-21T15:46:44;22.50;99.90
10294;DHT22;5192;50.328;7.610;2022-07-21T15:49:11;22.10;99.90
10294;DHT22;5192;50.328;7.610;2022-07-21T15:51:39;21.80;99.90
10294;DHT22;5192;50.328;7.610;2022-07-21T15:54:05;21.60;99.90
10294;DHT22;5192;50.328;7.610;2022-07-21T15:56:33;21.50;99.90
10294;DHT22;5192;50.328;7.610;2022-07-21T15:59:04;21.50;99.90
10294;DHT22;5192;50.328;7.610;2022-07-21T16:01:49;21.50;99.90
10294;DHT22;5192;50.328;7.610;2022-07-21T16:04:17;21.50;99.90
10294;DHT22;5192;50.328;7.610;2022-07-21T16:06:43;21.50;99.90
10294;DHT22;5192;50.328;7.610;2022-07-21T16:09:11;21.50;99.90
10294;DHT22;5192;50.328;7.610;2022-07-21T16:11:40;21.50;99.90
10294;DHT22;5192;50.328;7.610;2022-07-21T16:14:06;21.40;99.90
10294;DHT22;5192;50.328;7.610;2022-07-21T16:16:33;21.30;99.90
10294;DHT22;5192;50.328;7.610;2022-07-21T16:19:00;21.20;99.90